sensor_id;sensor_type;location;lat;lon;timestamp;P1;durP1;ratioP1;P2;durP2;ratioP2
24279;SDS011;12395;42.808;23.408;2023-05-07T00:00:08;9.43;;;4.35;;
24279;SDS011;12395;42.808;23.408;2023-05-07T00:02:34;8.73;;;4.55;;
24279;SDS011;12395;42.808;23.408;2023-05-07T00:05:00;7.97;;;4.75;;
24279;SDS011;12395;42.808;23.408;2023-05-07T00:07:27;9.05;;;4.53;;
24279;SDS011;12395;42.808;23.408;2023-05-07T00:09:53;8.40;;;4.30;;
24279;SDS011;12395;42.808;23.408;2023-05-07T00:12:18;8.57;;;5.30;;
24279;SDS011;12395;42.808;23.408;2023-05-07T00:14:43;9.25;;;4.68;;
24279;SDS011;12395;42.808;23.408;2023-05-07T00:17:09;7.13;;;4.10;;
24279;SDS011;12395;42.808;23.408;2023-05-07T00:19:34;7.15;;;4.38;;
24279;SDS011;12395;42.808;23.408;2023-05-07T00:22:00;9.05;;;4.20;;
24279;SDS011;12395;42.808;23.408;2023-05-07T00:24:25;8.48;;;4.30;;
24279;SDS011;12395;42.808;23.408;2023-05-07T00:26:51;7.57;;;4.40;;
24279;SDS011;12395;42.808;23.408;2023-05-07T00:29:17;8.43;;;4.47;;
24279;SDS011;12395;42.808;23.408;2023-05-07T00:31:43;7.22;;;4.50;;
24279;SDS011;12395;42.808;23.408;2023-05-07T00:34:08;7.30;;;4.45;;
24279;SDS011;12395;42.808;23.408;2023-05-07T00:36:34;8.68;;;4.50;;
24279;SDS011;12395;42.808;23.408;2023-05-07T00:38:59;7.18;;;4.10;;
24279;SDS011;12395;42.808;23.408;2023-05-07T00:41:28;7.45;;;4.28;;
24279;SDS011;12395;42.808;23.408;2023-05-07T00:43:53;7.93;;;4.63;;
24279;SDS011;12395;42.808;23.408;2023-05-07T00:46:20;8.15;;;4.50;;
24279;SDS011;12395;42.808;23.408;2023-05-07T00:48:46;8.85;;;5.13;;
24279;SDS011;12395;42.808;23.408;2023-05-07T00:51:12;10.20;;;4.57;;
24279;SDS011;12395;42.808;23.408;2023-05-07T00:53:37;7.70;;;4.30;;
24279;SDS011;12395;42.808;23.408;2023-05-07T00:56:04;7.50;;;4.20;;
24279;SDS011;12395;42.808;23.408;2023-05-07T00:58:31;12.23;;;4.60;;
24279;SDS011;12395;42.808;23.408;2023-05-07T01:00:57;7.95;;;4.88;;
24279;SDS011;12395;42.808;23.408;2023-05-07T01:03:23;9.32;;;5.18;;
24279;SDS011;12395;42.808;23.408;2023-05-07T01:05:48;7.88;;;4.43;;
24279;SDS011;12395;42.808;23.408;2023-05-07T01:08:16;7.65;;;4.57;;
24279;SDS011;12395;42.808;23.408;2023-05-07T01:10:43;8.10;;;4.95;;
24279;SDS011;12395;42.808;23.408;2023-05-07T01:13:09;8.77;;;4.80;;
24279;SDS011;12395;42.808;23.408;2023-05-07T01:15:36;7.70;;;4.72;;
24279;SDS011;12395;42.808;23.408;2023-05-07T01:18:02;9.57;;;5.15;;
24279;SDS011;12395;42.808;23.408;2023-05-07T01:20:28;8.98;;;4.95;;
24279;SDS011;12395;42.808;23.408;2023-05-07T01:22:53;8.25;;;4.68;;
24279;SDS011;12395;42.808;23.408;2023-05-07T01:25:20;11.38;;;4.93;;
24279;SDS011;12395;42.808;23.408;2023-05-07T01:27:45;8.02;;;5.00;;
24279;SDS011;12395;42.808;23.408;2023-05-07T01:30:11;9.85;;;5.10;;
24279;SDS011;12395;42.808;23.408;2023-05-07T01:32:42;8.75;;;4.68;;
24279;SDS011;12395;42.808;23.408;2023-05-07T01:35:13;11.52;;;4.60;;
24279;SDS011;12395;42.808;23.408;2023-05-07T01:37:43;7.78;;;4.63;;
24279;SDS011;12395;42.808;23.408;2023-05-07T01:40:10;8.55;;;4.75;;
24279;SDS011;12395;42.808;23.408;2023-05-07T01:42:36;7.95;;;4.78;;
24279;SDS011;12395;42.808;23.408;2023-05-07T01:45:01;8.43;;;4.90;;
24279;SDS011;12395;42.808;23.408;2023-05-07T01:47:27;8.88;;;5.10;;
24279;SDS011;12395;42.808;23.408;2023-05-07T01:49:54;11.82;;;6.70;;
24279;SDS011;12395;42.808;23.408;2023-05-07T01:52:20;14.90;;;7.72;;
24279;SDS011;12395;42.808;23.408;2023-05-07T01:54:45;14.82;;;8.70;;
24279;SDS011;12395;42.808;23.408;2023-05-07T01:57:11;12.98;;;8.23;;
24279;SDS011;12395;42.808;23.408;2023-05-07T01:59:36;14.43;;;8.23;;
24279;SDS011;12395;42.808;23.408;2023-05-07T02:02:01;15.70;;;8.98;;
24279;SDS011;12395;42.808;23.408;2023-05-07T02:04:27;14.63;;;8.30;;
24279;SDS011;12395;42.808;23.408;2023-05-07T02:06:52;14.50;;;8.75;;
24279;SDS011;12395;42.808;23.408;2023-05-07T02:09:18;14.55;;;8.10;;
24279;SDS011;12395;42.808;23.408;2023-05-07T02:11:44;12.10;;;7.68;;
24279;SDS011;12395;42.808;23.408;2023-05-07T02:14:09;14.68;;;7.85;;
24279;SDS011;12395;42.808;23.408;2023-05-07T02:16:35;13.43;;;7.85;;
24279;SDS011;12395;42.808;23.408;2023-05-07T02:19:00;13.75;;;8.45;;
24279;SDS011;12395;42.808;23.408;2023-05-07T02:21:26;15.55;;;8.93;;
24279;SDS011;12395;42.808;23.408;2023-05-07T02:23:51;14.98;;;9.38;;
24279;SDS011;12395;42.808;23.408;2023-05-07T02:26:16;16.73;;;9.00;;
24279;SDS011;12395;42.808;23.408;2023-05-07T02:28:42;15.75;;;9.40;;
24279;SDS011;12395;42.808;23.408;2023-05-07T02:31:07;16.05;;;8.85;;
24279;SDS011;12395;42.808;23.408;2023-05-07T02:33:33;15.90;;;8.93;;
24279;SDS011;12395;42.808;23.408;2023-05-07T02:36:06;17.53;;;9.40;;
24279;SDS011;12395;42.808;23.408;2023-05-07T02:38:33;15.48;;;9.35;;
24279;SDS011;12395;42.808;23.408;2023-05-07T02:40:58;15.35;;;9.25;;
24279;SDS011;12395;42.808;23.408;2023-05-07T02:43:24;16.00;;;9.65;;
24279;SDS011;12395;42.808;23.408;2023-05-07T02:45:59;15.88;;;9.45;;
24279;SDS011;12395;42.808;23.408;2023-05-07T02:48:28;18.25;;;9.85;;
24279;SDS011;12395;42.808;23.408;2023-05-07T02:50:54;17.05;;;9.18;;
24279;SDS011;12395;42.808;23.408;2023-05-07T02:53:19;16.17;;;9.43;;
24279;SDS011;12395;42.808;23.408;2023-05-07T02:55:45;19.25;;;9.93;;
24279;SDS011;12395;42.808;23.408;2023-05-07T02:58:10;17.88;;;10.13;;
24279;SDS011;12395;42.808;23.408;2023-05-07T03:00:36;18.38;;;10.45;;
24279;SDS011;12395;42.808;23.408;2023-05-07T03:03:01;19.30;;;10.68;;
24279;SDS011;12395;42.808;23.408;2023-05-07T03:05:26;15.23;;;9.30;;
24279;SDS011;12395;42.808;23.408;2023-05-07T03:07:52;15.80;;;8.50;;
24279;SDS011;12395;42.808;23.408;2023-05-07T03:10:17;16.48;;;9.10;;
24279;SDS011;12395;42.808;23.408;2023-05-07T03:12:43;17.58;;;9.70;;
24279;SDS011;12395;42.808;23.408;2023-05-07T03:15:09;16.02;;;9.80;;
24279;SDS011;12395;42.808;23.408;2023-05-07T03:17:36;16.33;;;8.98;;
24279;SDS011;12395;42.808;23.408;2023-05-07T03:20:01;15.73;;;9.35;;
24279;SDS011;12395;42.808;23.408;2023-05-07T03:22:27;17.63;;;9.77;;
24279;SDS011;12395;42.808;23.408;2023-05-07T03:24:52;16.63;;;9.73;;
24279;SDS011;12395;42.808;23.408;2023-05-07T03:27:18;16.05;;;9.40;;
24279;SDS011;12395;42.808;23.408;2023-05-07T03:29:43;17.50;;;9.75;;
24279;SDS011;12395;42.808;23.408;2023-05-07T03:32:09;16.38;;;8.82;;
24279;SDS011;12395;42.808;23.408;2023-05-07T03:34:34;14.35;;;8.82;;
24279;SDS011;12395;42.808;23.408;2023-05-07T03:36:59;16.90;;;9.55;;
24279;SDS011;12395;42.808;23.408;2023-05-07T03:39:25;16.83;;;9.82;;
24279;SDS011;12395;42.808;23.408;2023-05-07T03:41:50;13.65;;;8.63;;
24279;SDS011;12395;42.808;23.408;2023-05-07T03:44:16;15.60;;;9.40;;
24279;SDS011;12395;42.808;23.408;2023-05-07T03:46:41;15.82;;;9.52;;
24279;SDS011;12395;42.808;23.408;2023-05-07T03:49:06;16.27;;;9.77;;
24279;SDS011;12395;42.808;23.408;2023-05-07T03:51:32;17.67;;;10.05;;
24279;SDS011;12395;42.808;23.408;2023-05-07T03:53:57;16.50;;;10.00;;
24279;SDS011;12395;42.808;23.408;2023-05-07T03:56:23;16.88;;;9.57;;
24279;SDS011;12395;42.808;23.408;2023-05-07T03:58:51;15.18;;;9.38;;
24279;SDS011;12395;42.808;23.408;2023-05-07T04:01:17;15.88;;;9.23;;
24279;SDS011;12395;42.808;23.408;2023-05-07T04:03:42;14.18;;;8.90;;
24279;SDS011;12395;42.808;23.408;2023-05-07T04:06:07;15.43;;;8.23;;
24279;SDS011;12395;42.808;23.408;2023-05-07T04:08:33;14.60;;;8.55;;
24279;SDS011;12395;42.808;23.408;2023-05-07T04:10:58;14.63;;;8.65;;
24279;SDS011;12395;42.808;23.408;2023-05-07T04:13:24;15.07;;;8.55;;
24279;SDS011;12395;42.808;23.408;2023-05-07T04:15:50;13.95;;;8.40;;
24279;SDS011;12395;42.808;23.408;2023-05-07T04:18:16;14.73;;;8.50;;
24279;SDS011;12395;42.808;23.408;2023-05-07T04:20:42;14.20;;;8.20;;
24279;SDS011;12395;42.808;23.408;2023-05-07T04:23:07;14.30;;;8.15;;
24279;SDS011;12395;42.808;23.408;2023-05-07T04:25:33;12.63;;;7.97;;
24279;SDS011;12395;42.808;23.408;2023-05-07T04:27:58;14.40;;;8.43;;
24279;SDS011;12395;42.808;23.408;2023-05-07T04:30:24;13.77;;;8.13;;
24279;SDS011;12395;42.808;23.408;2023-05-07T04:32:50;13.45;;;7.75;;
24279;SDS011;12395;42.808;23.408;2023-05-07T04:35:15;14.35;;;8.32;;
24279;SDS011;12395;42.808;23.408;2023-05-07T04:37:41;14.57;;;8.45;;
24279;SDS011;12395;42.808;23.408;2023-05-07T04:40:07;13.10;;;8.25;;
24279;SDS011;12395;42.808;23.408;2023-05-07T04:42:32;14.70;;;8.48;;
24279;SDS011;12395;42.808;23.408;2023-05-07T04:44:58;14.90;;;8.90;;
24279;SDS011;12395;42.808;23.408;2023-05-07T04:47:23;16.08;;;9.20;;
24279;SDS011;12395;42.808;23.408;2023-05-07T04:49:49;14.85;;;9.77;;
24279;SDS011;12395;42.808;23.408;2023-05-07T04:52:14;15.80;;;9.80;;
24279;SDS011;12395;42.808;23.408;2023-05-07T04:54:40;18.05;;;10.18;;
24279;SDS011;12395;42.808;23.408;2023-05-07T04:57:05;17.42;;;10.40;;
24279;SDS011;12395;42.808;23.408;2023-05-07T04:59:31;16.08;;;9.68;;
24279;SDS011;12395;42.808;23.408;2023-05-07T05:01:57;15.50;;;8.90;;
24279;SDS011;12395;42.808;23.408;2023-05-07T05:04:22;15.15;;;9.50;;
24279;SDS011;12395;42.808;23.408;2023-05-07T05:06:48;20.92;;;10.85;;
24279;SDS011;12395;42.808;23.408;2023-05-07T05:09:13;15.73;;;9.43;;
24279;SDS011;12395;42.808;23.408;2023-05-07T05:11:39;15.02;;;8.65;;
24279;SDS011;12395;42.808;23.408;2023-05-07T05:14:05;14.35;;;9.00;;
24279;SDS011;12395;42.808;23.408;2023-05-07T05:16:30;12.95;;;8.10;;
24279;SDS011;12395;42.808;23.408;2023-05-07T05:18:55;13.55;;;8.20;;
24279;SDS011;12395;42.808;23.408;2023-05-07T05:21:21;12.68;;;8.18;;
24279;SDS011;12395;42.808;23.408;2023-05-07T05:23:46;13.73;;;8.50;;
24279;SDS011;12395;42.808;23.408;2023-05-07T05:26:12;12.52;;;7.88;;
24279;SDS011;12395;42.808;23.408;2023-05-07T05:28:37;14.45;;;7.65;;
24279;SDS011;12395;42.808;23.408;2023-05-07T05:31:03;13.63;;;8.38;;
24279;SDS011;12395;42.808;23.408;2023-05-07T05:33:29;14.00;;;8.00;;
24279;SDS011;12395;42.808;23.408;2023-05-07T05:35:55;13.18;;;7.95;;
24279;SDS011;12395;42.808;23.408;2023-05-07T05:38:20;13.90;;;8.25;;
24279;SDS011;12395;42.808;23.408;2023-05-07T05:40:46;12.57;;;7.68;;
24279;SDS011;12395;42.808;23.408;2023-05-07T05:43:11;13.73;;;7.93;;
24279;SDS011;12395;42.808;23.408;2023-05-07T05:45:37;12.60;;;7.50;;
24279;SDS011;12395;42.808;23.408;2023-05-07T05:48:02;13.70;;;7.85;;
24279;SDS011;12395;42.808;23.408;2023-05-07T05:50:28;13.75;;;7.53;;
24279;SDS011;12395;42.808;23.408;2023-05-07T05:52:53;12.77;;;8.10;;
24279;SDS011;12395;42.808;23.408;2023-05-07T05:55:19;13.13;;;8.18;;
24279;SDS011;12395;42.808;23.408;2023-05-07T05:57:44;12.40;;;8.07;;
24279;SDS011;12395;42.808;23.408;2023-05-07T06:00:10;13.90;;;8.05;;
24279;SDS011;12395;42.808;23.408;2023-05-07T06:02:36;12.60;;;8.15;;
24279;SDS011;12395;42.808;23.408;2023-05-07T06:05:01;13.75;;;8.95;;
24279;SDS011;12395;42.808;23.408;2023-05-07T06:07:27;12.38;;;8.50;;
24279;SDS011;12395;42.808;23.408;2023-05-07T06:09:53;12.73;;;7.97;;
24279;SDS011;12395;42.808;23.408;2023-05-07T06:12:18;12.07;;;7.75;;
24279;SDS011;12395;42.808;23.408;2023-05-07T06:14:43;13.35;;;8.27;;
24279;SDS011;12395;42.808;23.408;2023-05-07T06:17:09;13.30;;;8.32;;
24279;SDS011;12395;42.808;23.408;2023-05-07T06:19:34;14.35;;;8.38;;
24279;SDS011;12395;42.808;23.408;2023-05-07T06:22:00;17.55;;;8.88;;
24279;SDS011;12395;42.808;23.408;2023-05-07T06:24:26;12.95;;;8.27;;
24279;SDS011;12395;42.808;23.408;2023-05-07T06:26:52;13.35;;;8.27;;
24279;SDS011;12395;42.808;23.408;2023-05-07T06:29:17;14.40;;;7.85;;
24279;SDS011;12395;42.808;23.408;2023-05-07T06:31:43;12.57;;;7.63;;
24279;SDS011;12395;42.808;23.408;2023-05-07T06:34:08;12.27;;;8.13;;
24279;SDS011;12395;42.808;23.408;2023-05-07T06:36:35;13.70;;;8.02;;
24279;SDS011;12395;42.808;23.408;2023-05-07T06:39:00;15.45;;;8.55;;
24279;SDS011;12395;42.808;23.408;2023-05-07T06:41:26;14.68;;;8.00;;
24279;SDS011;12395;42.808;23.408;2023-05-07T06:43:51;14.63;;;8.10;;
24279;SDS011;12395;42.808;23.408;2023-05-07T06:46:17;12.77;;;8.30;;
24279;SDS011;12395;42.808;23.408;2023-05-07T06:48:42;14.38;;;8.02;;
24279;SDS011;12395;42.808;23.408;2023-05-07T06:51:07;12.10;;;7.45;;
24279;SDS011;12395;42.808;23.408;2023-05-07T06:53:33;12.93;;;7.95;;
24279;SDS011;12395;42.808;23.408;2023-05-07T06:55:59;13.38;;;8.10;;
24279;SDS011;12395;42.808;23.408;2023-05-07T06:58:24;11.50;;;7.28;;
24279;SDS011;12395;42.808;23.408;2023-05-07T07:00:50;12.52;;;7.78;;
24279;SDS011;12395;42.808;23.408;2023-05-07T07:03:15;11.25;;;7.32;;
24279;SDS011;12395;42.808;23.408;2023-05-07T07:05:41;11.52;;;7.22;;
24279;SDS011;12395;42.808;23.408;2023-05-07T07:08:07;13.52;;;7.43;;
24279;SDS011;12395;42.808;23.408;2023-05-07T07:10:32;11.57;;;6.93;;
24279;SDS011;12395;42.808;23.408;2023-05-07T07:12:58;10.00;;;7.10;;
24279;SDS011;12395;42.808;23.408;2023-05-07T07:15:23;13.95;;;7.40;;
24279;SDS011;12395;42.808;23.408;2023-05-07T07:17:50;10.57;;;7.00;;
24279;SDS011;12395;42.808;23.408;2023-05-07T07:20:16;10.75;;;7.05;;
24279;SDS011;12395;42.808;23.408;2023-05-07T07:22:41;11.07;;;7.13;;
24279;SDS011;12395;42.808;23.408;2023-05-07T07:25:07;10.63;;;6.95;;
24279;SDS011;12395;42.808;23.408;2023-05-07T07:27:32;12.25;;;7.00;;
24279;SDS011;12395;42.808;23.408;2023-05-07T07:29:58;11.02;;;6.93;;
24279;SDS011;12395;42.808;23.408;2023-05-07T07:32:23;12.25;;;6.47;;
24279;SDS011;12395;42.808;23.408;2023-05-07T07:34:48;10.88;;;6.97;;
24279;SDS011;12395;42.808;23.408;2023-05-07T07:37:14;10.15;;;6.05;;
24279;SDS011;12395;42.808;23.408;2023-05-07T07:39:39;8.65;;;5.80;;
24279;SDS011;12395;42.808;23.408;2023-05-07T07:42:06;7.97;;;5.80;;
24279;SDS011;12395;42.808;23.408;2023-05-07T07:44:31;10.15;;;6.28;;
24279;SDS011;12395;42.808;23.408;2023-05-07T07:46:57;9.57;;;5.95;;
24279;SDS011;12395;42.808;23.408;2023-05-07T07:49:22;9.10;;;5.63;;
24279;SDS011;12395;42.808;23.408;2023-05-07T07:51:47;7.95;;;5.38;;
24279;SDS011;12395;42.808;23.408;2023-05-07T07:54:13;9.32;;;5.25;;
24279;SDS011;12395;42.808;23.408;2023-05-07T07:56:38;8.23;;;5.03;;
24279;SDS011;12395;42.808;23.408;2023-05-07T07:59:03;8.18;;;4.90;;
24279;SDS011;12395;42.808;23.408;2023-05-07T08:01:29;8.40;;;5.00;;
24279;SDS011;12395;42.808;23.408;2023-05-07T08:03:55;7.63;;;5.18;;
24279;SDS011;12395;42.808;23.408;2023-05-07T08:06:20;13.57;;;5.07;;
24279;SDS011;12395;42.808;23.408;2023-05-07T08:08:46;8.77;;;5.15;;
24279;SDS011;12395;42.808;23.408;2023-05-07T08:11:11;7.45;;;4.40;;
24279;SDS011;12395;42.808;23.408;2023-05-07T08:13:37;5.93;;;4.10;;
24279;SDS011;12395;42.808;23.408;2023-05-07T08:16:03;9.23;;;4.97;;
24279;SDS011;12395;42.808;23.408;2023-05-07T08:18:29;10.05;;;4.85;;
24279;SDS011;12395;42.808;23.408;2023-05-07T08:20:55;9.85;;;4.75;;
24279;SDS011;12395;42.808;23.408;2023-05-07T08:23:21;8.48;;;4.95;;
24279;SDS011;12395;42.808;23.408;2023-05-07T08:25:46;7.03;;;5.05;;
24279;SDS011;12395;42.808;23.408;2023-05-07T08:28:12;6.22;;;4.65;;
24279;SDS011;12395;42.808;23.408;2023-05-07T08:30:37;8.02;;;4.93;;
24279;SDS011;12395;42.808;23.408;2023-05-07T08:33:03;7.43;;;4.60;;
24279;SDS011;12395;42.808;23.408;2023-05-07T08:35:28;8.20;;;4.93;;
24279;SDS011;12395;42.808;23.408;2023-05-07T08:37:54;7.80;;;4.72;;
24279;SDS011;12395;42.808;23.408;2023-05-07T08:40:20;7.45;;;4.45;;
24279;SDS011;12395;42.808;23.408;2023-05-07T08:42:49;7.18;;;4.38;;
24279;SDS011;12395;42.808;23.408;2023-05-07T08:47:44;6.85;;;4.15;;
24279;SDS011;12395;42.808;23.408;2023-05-07T08:50:12;7.82;;;4.18;;
24279;SDS011;12395;42.808;23.408;2023-05-07T08:52:41;6.70;;;3.92;;
24279;SDS011;12395;42.808;23.408;2023-05-07T08:55:08;5.68;;;4.10;;
24279;SDS011;12395;42.808;23.408;2023-05-07T08:57:34;9.52;;;4.20;;
24279;SDS011;12395;42.808;23.408;2023-05-07T09:00:02;6.57;;;3.97;;
24279;SDS011;12395;42.808;23.408;2023-05-07T09:02:29;7.28;;;4.40;;
24279;SDS011;12395;42.808;23.408;2023-05-07T09:04:54;8.15;;;4.53;;
24279;SDS011;12395;42.808;23.408;2023-05-07T09:07:20;9.60;;;4.40;;
24279;SDS011;12395;42.808;23.408;2023-05-07T09:09:48;6.70;;;3.97;;
24279;SDS011;12395;42.808;23.408;2023-05-07T09:12:13;6.55;;;3.55;;
24279;SDS011;12395;42.808;23.408;2023-05-07T09:14:39;5.55;;;3.53;;
24279;SDS011;12395;42.808;23.408;2023-05-07T09:17:04;8.45;;;4.38;;
24279;SDS011;12395;42.808;23.408;2023-05-07T09:19:30;6.47;;;3.97;;
24279;SDS011;12395;42.808;23.408;2023-05-07T09:21:59;7.25;;;3.90;;
24279;SDS011;12395;42.808;23.408;2023-05-07T09:24:27;5.18;;;3.85;;
24279;SDS011;12395;42.808;23.408;2023-05-07T09:26:59;6.15;;;3.90;;
24279;SDS011;12395;42.808;23.408;2023-05-07T09:29:26;6.30;;;3.83;;
24279;SDS011;12395;42.808;23.408;2023-05-07T09:34:19;8.68;;;4.93;;
24279;SDS011;12395;42.808;23.408;2023-05-07T09:36:44;10.63;;;5.07;;
24279;SDS011;12395;42.808;23.408;2023-05-07T09:39:10;7.80;;;5.03;;
24279;SDS011;12395;42.808;23.408;2023-05-07T09:41:43;6.97;;;4.18;;
24279;SDS011;12395;42.808;23.408;2023-05-07T09:44:12;8.55;;;5.03;;
24279;SDS011;12395;42.808;23.408;2023-05-07T09:46:38;7.88;;;5.05;;
24279;SDS011;12395;42.808;23.408;2023-05-07T09:49:08;7.10;;;4.40;;
24279;SDS011;12395;42.808;23.408;2023-05-07T09:51:49;6.95;;;4.70;;
24279;SDS011;12395;42.808;23.408;2023-05-07T09:54:16;6.20;;;4.45;;
24279;SDS011;12395;42.808;23.408;2023-05-07T09:56:43;5.82;;;4.18;;
24279;SDS011;12395;42.808;23.408;2023-05-07T09:59:10;5.55;;;3.70;;
24279;SDS011;12395;42.808;23.408;2023-05-07T10:01:38;6.85;;;3.60;;
24279;SDS011;12395;42.808;23.408;2023-05-07T10:06:33;4.75;;;3.10;;
24279;SDS011;12395;42.808;23.408;2023-05-07T10:08:59;5.53;;;3.33;;
24279;SDS011;12395;42.808;23.408;2023-05-07T10:11:25;7.13;;;4.20;;
24279;SDS011;12395;42.808;23.408;2023-05-07T10:13:52;7.13;;;4.05;;
24279;SDS011;12395;42.808;23.408;2023-05-07T10:16:18;6.57;;;3.33;;
24279;SDS011;12395;42.808;23.408;2023-05-07T10:18:44;4.30;;;3.13;;
24279;SDS011;12395;42.808;23.408;2023-05-07T10:21:13;5.03;;;3.35;;
24279;SDS011;12395;42.808;23.408;2023-05-07T10:23:49;4.82;;;2.90;;
24279;SDS011;12395;42.808;23.408;2023-05-07T10:26:20;3.88;;;3.10;;
24279;SDS011;12395;42.808;23.408;2023-05-07T10:28:48;4.63;;;3.15;;
24279;SDS011;12395;42.808;23.408;2023-05-07T10:34:23;4.80;;;2.75;;
24279;SDS011;12395;42.808;23.408;2023-05-07T10:36:53;7.28;;;4.80;;
24279;SDS011;12395;42.808;23.408;2023-05-07T10:39:20;4.60;;;3.08;;
24279;SDS011;12395;42.808;23.408;2023-05-07T10:41:46;4.88;;;2.55;;
24279;SDS011;12395;42.808;23.408;2023-05-07T10:44:24;4.53;;;2.70;;
24279;SDS011;12395;42.808;23.408;2023-05-07T10:47:07;5.93;;;2.40;;
24279;SDS011;12395;42.808;23.408;2023-05-07T10:49:49;3.78;;;2.60;;
24279;SDS011;12395;42.808;23.408;2023-05-07T10:52:30;3.83;;;2.70;;
24279;SDS011;12395;42.808;23.408;2023-05-07T10:57:39;4.55;;;2.72;;
24279;SDS011;12395;42.808;23.408;2023-05-07T11:05:27;3.45;;;2.58;;
24279;SDS011;12395;42.808;23.408;2023-05-07T11:10:20;3.83;;;2.20;;
24279;SDS011;12395;42.808;23.408;2023-05-07T11:15:11;3.50;;;2.58;;
24279;SDS011;12395;42.808;23.408;2023-05-07T11:20:20;5.10;;;2.70;;
24279;SDS011;12395;42.808;23.408;2023-05-07T11:22:46;4.70;;;2.88;;
24279;SDS011;12395;42.808;23.408;2023-05-07T11:25:16;5.05;;;2.83;;
24279;SDS011;12395;42.808;23.408;2023-05-07T11:27:46;6.90;;;3.00;;
24279;SDS011;12395;42.808;23.408;2023-05-07T11:30:20;4.68;;;3.17;;
24279;SDS011;12395;42.808;23.408;2023-05-07T11:32:47;6.63;;;3.22;;
24279;SDS011;12395;42.808;23.408;2023-05-07T11:35:13;4.95;;;3.70;;
24279;SDS011;12395;42.808;23.408;2023-05-07T11:37:40;5.25;;;3.58;;
24279;SDS011;12395;42.808;23.408;2023-05-07T11:40:08;8.37;;;4.60;;
24279;SDS011;12395;42.808;23.408;2023-05-07T11:42:39;8.23;;;4.40;;
24279;SDS011;12395;42.808;23.408;2023-05-07T11:45:06;4.30;;;3.38;;
24279;SDS011;12395;42.808;23.408;2023-05-07T11:47:33;10.15;;;5.78;;
24279;SDS011;12395;42.808;23.408;2023-05-07T11:50:03;6.35;;;4.80;;
24279;SDS011;12395;42.808;23.408;2023-05-07T11:52:33;5.80;;;4.13;;
24279;SDS011;12395;42.808;23.408;2023-05-07T11:54:59;4.75;;;3.38;;
24279;SDS011;12395;42.808;23.408;2023-05-07T11:57:26;5.13;;;3.28;;
24279;SDS011;12395;42.808;23.408;2023-05-07T11:59:59;4.60;;;3.20;;
24279;SDS011;12395;42.808;23.408;2023-05-07T12:02:27;3.95;;;3.05;;
24279;SDS011;12395;42.808;23.408;2023-05-07T12:04:54;4.25;;;2.92;;
24279;SDS011;12395;42.808;23.408;2023-05-07T12:07:20;4.47;;;3.20;;
24279;SDS011;12395;42.808;23.408;2023-05-07T12:09:46;4.80;;;2.83;;
24279;SDS011;12395;42.808;23.408;2023-05-07T12:12:13;7.03;;;4.05;;
24279;SDS011;12395;42.808;23.408;2023-05-07T12:14:43;10.43;;;4.70;;
24279;SDS011;12395;42.808;23.408;2023-05-07T12:17:09;7.00;;;3.10;;
24279;SDS011;12395;42.808;23.408;2023-05-07T12:19:36;10.25;;;3.28;;
24279;SDS011;12395;42.808;23.408;2023-05-07T12:22:03;4.90;;;2.83;;
24279;SDS011;12395;42.808;23.408;2023-05-07T12:24:41;4.70;;;3.10;;
24279;SDS011;12395;42.808;23.408;2023-05-07T12:27:10;4.53;;;3.15;;
24279;SDS011;12395;42.808;23.408;2023-05-07T12:29:35;4.68;;;3.38;;
24279;SDS011;12395;42.808;23.408;2023-05-07T12:32:04;4.40;;;2.97;;
24279;SDS011;12395;42.808;23.408;2023-05-07T12:34:31;5.75;;;3.08;;
24279;SDS011;12395;42.808;23.408;2023-05-07T12:36:56;4.85;;;2.95;;
24279;SDS011;12395;42.808;23.408;2023-05-07T12:39:22;4.03;;;2.90;;
24279;SDS011;12395;42.808;23.408;2023-05-07T12:41:57;5.22;;;3.25;;
24279;SDS011;12395;42.808;23.408;2023-05-07T12:44:24;5.07;;;2.97;;
24279;SDS011;12395;42.808;23.408;2023-05-07T12:46:50;3.40;;;2.85;;
24279;SDS011;12395;42.808;23.408;2023-05-07T12:49:16;6.63;;;2.70;;
24279;SDS011;12395;42.808;23.408;2023-05-07T12:51:43;7.00;;;2.97;;
24279;SDS011;12395;42.808;23.408;2023-05-07T12:54:09;5.20;;;2.95;;
24279;SDS011;12395;42.808;23.408;2023-05-07T12:56:37;3.42;;;2.70;;
24279;SDS011;12395;42.808;23.408;2023-05-07T12:59:03;5.15;;;2.72;;
24279;SDS011;12395;42.808;23.408;2023-05-07T13:01:30;5.25;;;2.92;;
24279;SDS011;12395;42.808;23.408;2023-05-07T13:03:56;3.75;;;2.55;;
24279;SDS011;12395;42.808;23.408;2023-05-07T13:06:25;4.70;;;2.58;;
24279;SDS011;12395;42.808;23.408;2023-05-07T13:08:51;4.82;;;2.75;;
24279;SDS011;12395;42.808;23.408;2023-05-07T13:11:16;6.28;;;2.88;;
24279;SDS011;12395;42.808;23.408;2023-05-07T13:13:42;3.95;;;2.65;;
24279;SDS011;12395;42.808;23.408;2023-05-07T13:16:08;4.93;;;2.50;;
24279;SDS011;12395;42.808;23.408;2023-05-07T13:21:00;4.93;;;2.67;;
24279;SDS011;12395;42.808;23.408;2023-05-07T13:23:26;3.60;;;2.55;;
24279;SDS011;12395;42.808;23.408;2023-05-07T13:25:55;3.88;;;2.40;;
24279;SDS011;12395;42.808;23.408;2023-05-07T13:28:21;5.53;;;2.78;;
24279;SDS011;12395;42.808;23.408;2023-05-07T13:30:48;2.97;;;2.40;;
24279;SDS011;12395;42.808;23.408;2023-05-07T13:33:13;3.78;;;2.13;;
24279;SDS011;12395;42.808;23.408;2023-05-07T13:35:40;3.65;;;2.45;;
24279;SDS011;12395;42.808;23.408;2023-05-07T13:38:06;3.95;;;2.08;;
24279;SDS011;12395;42.808;23.408;2023-05-07T13:40:31;2.63;;;2.08;;
24279;SDS011;12395;42.808;23.408;2023-05-07T13:42:57;2.58;;;2.30;;
24279;SDS011;12395;42.808;23.408;2023-05-07T13:45:23;4.35;;;2.65;;
24279;SDS011;12395;42.808;23.408;2023-05-07T13:47:51;3.50;;;2.60;;
24279;SDS011;12395;42.808;23.408;2023-05-07T13:50:17;3.22;;;2.20;;
24279;SDS011;12395;42.808;23.408;2023-05-07T13:52:43;2.80;;;2.42;;
24279;SDS011;12395;42.808;23.408;2023-05-07T13:55:15;3.88;;;2.40;;
24279;SDS011;12395;42.808;23.408;2023-05-07T13:57:41;3.10;;;2.20;;
24279;SDS011;12395;42.808;23.408;2023-05-07T14:00:06;4.30;;;2.72;;
24279;SDS011;12395;42.808;23.408;2023-05-07T14:02:32;3.30;;;2.50;;
24279;SDS011;12395;42.808;23.408;2023-05-07T14:04:57;4.03;;;2.40;;
24279;SDS011;12395;42.808;23.408;2023-05-07T14:07:23;4.20;;;2.40;;
24279;SDS011;12395;42.808;23.408;2023-05-07T14:09:48;4.60;;;2.17;;
24279;SDS011;12395;42.808;23.408;2023-05-07T14:12:13;5.38;;;2.70;;
24279;SDS011;12395;42.808;23.408;2023-05-07T14:14:39;2.95;;;2.65;;
24279;SDS011;12395;42.808;23.408;2023-05-07T14:17:04;3.58;;;2.30;;
24279;SDS011;12395;42.808;23.408;2023-05-07T14:19:30;4.85;;;2.53;;
24279;SDS011;12395;42.808;23.408;2023-05-07T14:21:55;3.38;;;2.50;;
24279;SDS011;12395;42.808;23.408;2023-05-07T14:24:21;3.15;;;2.50;;
24279;SDS011;12395;42.808;23.408;2023-05-07T14:26:46;3.63;;;2.30;;
24279;SDS011;12395;42.808;23.408;2023-05-07T14:29:12;4.55;;;2.83;;
24279;SDS011;12395;42.808;23.408;2023-05-07T14:31:38;4.25;;;2.28;;
24279;SDS011;12395;42.808;23.408;2023-05-07T14:34:03;6.15;;;3.03;;
24279;SDS011;12395;42.808;23.408;2023-05-07T14:36:29;4.20;;;2.53;;
24279;SDS011;12395;42.808;23.408;2023-05-07T14:38:56;4.68;;;2.35;;
24279;SDS011;12395;42.808;23.408;2023-05-07T14:41:24;4.00;;;2.53;;
24279;SDS011;12395;42.808;23.408;2023-05-07T14:43:49;2.83;;;2.40;;
24279;SDS011;12395;42.808;23.408;2023-05-07T14:46:18;3.30;;;2.58;;
24279;SDS011;12395;42.808;23.408;2023-05-07T14:48:44;3.00;;;2.30;;
24279;SDS011;12395;42.808;23.408;2023-05-07T14:51:11;3.67;;;2.38;;